Gh Harmony — VRNJ6 — position and weather

sailwx.info

Track history (hours):
 
Tides and Currents Weather Stations Pressure Air Temp Water Temp Dewpoint Dewpoint Depression Visibility Wind Speed Wind Dir Waves Ship Positions

Gh Harmony

Last reported at 2017-Nov-23 13:51 UTC. Time now 2017-Nov-25 07:56 UTC.
Position N 37°46' E 122°07'.

Length 229 m; draft 9.5 m.

Type: Cargo ship. MMSI: 477848100.

Date/timePositionNaut miles runAvg speedWind from/ knotsBaromVisibWave heightAir tempDewpointWater temp
2017-Nov-23 13:51N 37°46' E 122°07'913.6
2017-Nov-23 13:11N 37°48' E 121°56'213.4
2017-Nov-23 13:00N 37°48' E 121°53'713.8
2017-Nov-23 12:30N 37°50' E 121°44'713.9
2017-Nov-23 12:00N 37°51' E 121°36'714.1
2017-Nov-23 11:31N 37°52' E 121°27'714.4
2017-Nov-23 11:00N 37°53' E 121°18'714.5
2017-Nov-23 10:30N 37°55' E 121°09'4711.3
2017-Nov-23 06:20N 37°44' E 120°11'411.8
2017-Nov-23 05:59N 37°40' E 120°13'3 7.0
2017-Nov-23 05:30N 37°39' E 120°17'0 0.5
2017-Nov-23 04:55N 37°39' E 120°17'0 0.0
2017-Nov-23 04:25N 37°39' E 120°17'0 0.0
2017-Nov-23 03:55N 37°39' E 120°17'0 0.0
2017-Nov-23 03:30N 37°39' E 120°17'0 0.0
2017-Nov-23 02:55N 37°39' E 120°17'0 0.0
2017-Nov-23 02:27N 37°39' E 120°17'0 0.0
2017-Nov-23 02:00N 37°39' E 120°17'0 0.0
2017-Nov-23 01:28N 37°39' E 120°17'0 0.0
2017-Nov-23 01:00N 37°39' E 120°17'0 0.0
2017-Nov-23 00:31N 37°39' E 120°17'0 0.0
2017-Nov-22 23:51N 37°39' E 120°17'0 0.0
2017-Nov-22 23:30N 37°39' E 120°17'0 0.0
2017-Nov-22 23:00N 37°39' E 120°17'0 0.0
2017-Nov-22 22:30N 37°39' E 120°17'0 0.0
2017-Nov-22 22:00N 37°39' E 120°17'0 0.0
2017-Nov-22 21:30N 37°39' E 120°17'0 0.0
2017-Nov-22 21:00N 37°39' E 120°17'0 0.0
2017-Nov-22 20:25N 37°39' E 120°17'0 0.0
2017-Nov-22 19:55N 37°39' E 120°17'0 0.0
2017-Nov-22 19:00N 37°39' E 120°17'  
2017-Nov-20 00:30N 37°39' E 120°17'0 0.0
2017-Nov-20 00:01N 37°39' E 120°17'0 0.0
2017-Nov-19 23:30N 37°39' E 120°17'0 0.0
2017-Nov-19 23:00N 37°39' E 120°17'0 0.0
2017-Nov-19 22:26N 37°39' E 120°17'0 0.0
2017-Nov-19 22:00N 37°39' E 120°17'0 0.0
2017-Nov-19 21:30N 37°39' E 120°17'0 0.0
2017-Nov-19 21:00N 37°39' E 120°17'0 0.0
2017-Nov-19 20:30N 37°39' E 120°17'0 0.0
2017-Nov-19 20:00N 37°39' E 120°17'0 0.0
2017-Nov-19 19:30N 37°39' E 120°17'0 0.0
2017-Nov-19 19:01N 37°39' E 120°17'0 0.0
2017-Nov-19 18:30N 37°39' E 120°17'0 0.0
2017-Nov-19 18:00N 37°39' E 120°17'0 0.0
2017-Nov-19 17:30N 37°39' E 120°17'0 0.0
2017-Nov-19 17:00N 37°39' E 120°17'0 0.0
2017-Nov-19 16:22N 37°39' E 120°17'0 0.0
2017-Nov-19 16:00N 37°39' E 120°17'0 0.0
2017-Nov-19 15:30N 37°39' E 120°17'0 0.0
2017-Nov-19 15:00N 37°39' E 120°17'0 0.0
2017-Nov-19 14:30N 37°39' E 120°17'0 0.0
2017-Nov-19 14:00N 37°39' E 120°17'0 0.0
2017-Nov-19 13:31N 37°39' E 120°17'0 0.0
2017-Nov-19 13:01N 37°39' E 120°17'0 0.0
2017-Nov-19 12:30N 37°39' E 120°17'0 0.0
2017-Nov-19 11:57N 37°39' E 120°17'0 0.0
2017-Nov-19 11:27N 37°39' E 120°17'0 0.0
2017-Nov-19 11:00N 37°39' E 120°17'0 0.0
2017-Nov-19 10:29N 37°39' E 120°17'0 0.0
2017-Nov-19 09:47N 37°39' E 120°17'0 0.0
2017-Nov-19 09:30N 37°39' E 120°17'0 0.0
2017-Nov-19 09:00N 37°39' E 120°17'0 0.0
2017-Nov-19 08:25N 37°39' E 120°17'0 0.0
2017-Nov-19 07:59N 37°39' E 120°17'0 0.0
2017-Nov-19 07:29N 37°39' E 120°17'0 0.0
2017-Nov-19 07:01N 37°39' E 120°17'0 0.0
2017-Nov-19 06:26N 37°39' E 120°17'0 0.0
2017-Nov-19 06:00N 37°39' E 120°17'1 1.9
2017-Nov-19 05:30N 37°38' E 120°16'11 0.7
2017-Nov-18 12:46N 37°48' E 120°08'42 1.2
2017-Nov-17 00:34N 37°59' E 120°59'1 9.9
2017-Nov-17 00:30N 37°59' E 121°00'610.3
2017-Nov-16 23:58N 37°58' E 121°07'510.2
2017-Nov-16 23:30N 37°56' E 121°13'510.2
2017-Nov-16 23:00N 37°55' E 121°19'510.2
2017-Nov-16 22:30N 37°55' E 121°25'510.5
2017-Nov-16 22:00N 37°54' E 121°32'510.6
2017-Nov-16 21:30N 37°54' E 121°39'510.8
2017-Nov-16 21:00N 37°53' E 121°46'510.8
2017-Nov-16 20:30N 37°52' E 121°52'510.9
2017-Nov-16 20:00N 37°52' E 121°59'  
Track history (hours):
 
Tides and Currents Weather Stations Pressure Air Temp Water Temp Dewpoint Dewpoint Depression Visibility Wind Speed Wind Dir Waves Ship Positions

Gh Harmony

Last reported at 2017-Nov-23 13:51 UTC. Time now 2017-Nov-25 07:56 UTC.
Position N 37°46' E 122°07'.

Length 229 m; draft 9.5 m.

Type: Cargo ship. MMSI: 477848100.

Date/timePositionNaut miles runAvg speedWind from/ knotsBaromVisibWave heightAir tempDewpointWater temp
2017-Nov-23 13:51N 37°46' E 122°07'913.6
2017-Nov-23 13:11N 37°48' E 121°56'213.4
2017-Nov-23 13:00N 37°48' E 121°53'713.8
2017-Nov-23 12:30N 37°50' E 121°44'713.9
2017-Nov-23 12:00N 37°51' E 121°36'714.1
2017-Nov-23 11:31N 37°52' E 121°27'714.4
2017-Nov-23 11:00N 37°53' E 121°18'714.5
2017-Nov-23 10:30N 37°55' E 121°09'4711.3
2017-Nov-23 06:20N 37°44' E 120°11'411.8
2017-Nov-23 05:59N 37°40' E 120°13'3 7.0
2017-Nov-23 05:30N 37°39' E 120°17'0 0.5
2017-Nov-23 04:55N 37°39' E 120°17'0 0.0
2017-Nov-23 04:25N 37°39' E 120°17'0 0.0
2017-Nov-23 03:55N 37°39' E 120°17'0 0.0
2017-Nov-23 03:30N 37°39' E 120°17'0 0.0
2017-Nov-23 02:55N 37°39' E 120°17'0 0.0
2017-Nov-23 02:27N 37°39' E 120°17'0 0.0
2017-Nov-23 02:00N 37°39' E 120°17'0 0.0
2017-Nov-23 01:28N 37°39' E 120°17'0 0.0
2017-Nov-23 01:00N 37°39' E 120°17'0 0.0
2017-Nov-23 00:31N 37°39' E 120°17'0 0.0
2017-Nov-22 23:51N 37°39' E 120°17'0 0.0
2017-Nov-22 23:30N 37°39' E 120°17'0 0.0
2017-Nov-22 23:00N 37°39' E 120°17'0 0.0
2017-Nov-22 22:30N 37°39' E 120°17'0 0.0
2017-Nov-22 22:00N 37°39' E 120°17'0 0.0
2017-Nov-22 21:30N 37°39' E 120°17'0 0.0
2017-Nov-22 21:00N 37°39' E 120°17'0 0.0
2017-Nov-22 20:25N 37°39' E 120°17'0 0.0
2017-Nov-22 19:55N 37°39' E 120°17'0 0.0
2017-Nov-22 19:00N 37°39' E 120°17'  
2017-Nov-20 00:30N 37°39' E 120°17'0 0.0
2017-Nov-20 00:01N 37°39' E 120°17'0 0.0
2017-Nov-19 23:30N 37°39' E 120°17'0 0.0
2017-Nov-19 23:00N 37°39' E 120°17'0 0.0
2017-Nov-19 22:26N 37°39' E 120°17'0 0.0
2017-Nov-19 22:00N 37°39' E 120°17'0 0.0
2017-Nov-19 21:30N 37°39' E 120°17'0 0.0
2017-Nov-19 21:00N 37°39' E 120°17'0 0.0
2017-Nov-19 20:30N 37°39' E 120°17'0 0.0
2017-Nov-19 20:00N 37°39' E 120°17'0 0.0
2017-Nov-19 19:30N 37°39' E 120°17'0 0.0
2017-Nov-19 19:01N 37°39' E 120°17'0 0.0
2017-Nov-19 18:30N 37°39' E 120°17'0 0.0
2017-Nov-19 18:00N 37°39' E 120°17'0 0.0
2017-Nov-19 17:30N 37°39' E 120°17'0 0.0
2017-Nov-19 17:00N 37°39' E 120°17'0 0.0
2017-Nov-19 16:22N 37°39' E 120°17'0 0.0
2017-Nov-19 16:00N 37°39' E 120°17'0 0.0
2017-Nov-19 15:30N 37°39' E 120°17'0 0.0
2017-Nov-19 15:00N 37°39' E 120°17'0 0.0
2017-Nov-19 14:30N 37°39' E 120°17'0 0.0
2017-Nov-19 14:00N 37°39' E 120°17'0 0.0
2017-Nov-19 13:31N 37°39' E 120°17'0 0.0
2017-Nov-19 13:01N 37°39' E 120°17'0 0.0
2017-Nov-19 12:30N 37°39' E 120°17'0 0.0
2017-Nov-19 11:57N 37°39' E 120°17'0 0.0
2017-Nov-19 11:27N 37°39' E 120°17'0 0.0
2017-Nov-19 11:00N 37°39' E 120°17'0 0.0
2017-Nov-19 10:29N 37°39' E 120°17'0 0.0
2017-Nov-19 09:47N 37°39' E 120°17'0 0.0
2017-Nov-19 09:30N 37°39' E 120°17'0 0.0
2017-Nov-19 09:00N 37°39' E 120°17'0 0.0
2017-Nov-19 08:25N 37°39' E 120°17'0 0.0
2017-Nov-19 07:59N 37°39' E 120°17'0 0.0
2017-Nov-19 07:29N 37°39' E 120°17'0 0.0
2017-Nov-19 07:01N 37°39' E 120°17'0 0.0
2017-Nov-19 06:26N 37°39' E 120°17'0 0.0
2017-Nov-19 06:00N 37°39' E 120°17'1 1.9
2017-Nov-19 05:30N 37°38' E 120°16'11 0.7
2017-Nov-18 12:46N 37°48' E 120°08'42 1.2
2017-Nov-17 00:34N 37°59' E 120°59'1 9.9
2017-Nov-17 00:30N 37°59' E 121°00'610.3
2017-Nov-16 23:58N 37°58' E 121°07'510.2
2017-Nov-16 23:30N 37°56' E 121°13'510.2
2017-Nov-16 23:00N 37°55' E 121°19'510.2
2017-Nov-16 22:30N 37°55' E 121°25'510.5
2017-Nov-16 22:00N 37°54' E 121°32'510.6
2017-Nov-16 21:30N 37°54' E 121°39'510.8
2017-Nov-16 21:00N 37°53' E 121°46'510.8
2017-Nov-16 20:30N 37°52' E 121°52'510.9
2017-Nov-16 20:00N 37°52' E 121°59'  

Dump ship's entire track history